sensor_id;sensor_type;location;lat;lon;timestamp;P1;durP1;ratioP1;P2;durP2;ratioP2
21305;SDS011;10812;51.838;5.838;2022-10-04T00:02:03;30.80;;;15.07;;
21305;SDS011;10812;51.838;5.838;2022-10-04T00:04:44;31.13;;;15.57;;
21305;SDS011;10812;51.838;5.838;2022-10-04T00:07:18;22.90;;;12.37;;
21305;SDS011;10812;51.838;5.838;2022-10-04T00:09:50;17.00;;;9.00;;
21305;SDS011;10812;51.838;5.838;2022-10-04T00:12:23;13.30;;;7.90;;
21305;SDS011;10812;51.838;5.838;2022-10-04T00:14:54;8.57;;;7.07;;
21305;SDS011;10812;51.838;5.838;2022-10-04T00:17:25;10.20;;;7.47;;
21305;SDS011;10812;51.838;5.838;2022-10-04T00:19:57;12.37;;;7.37;;
21305;SDS011;10812;51.838;5.838;2022-10-04T00:22:26;10.80;;;7.07;;
21305;SDS011;10812;51.838;5.838;2022-10-04T00:33:43;13.57;;;7.60;;
21305;SDS011;10812;51.838;5.838;2022-10-04T00:42:16;9.77;;;7.63;;
21305;SDS011;10812;51.838;5.838;2022-10-04T00:44:58;16.20;;;9.73;;
21305;SDS011;10812;51.838;5.838;2022-10-04T00:47:31;10.57;;;8.00;;
21305;SDS011;10812;51.838;5.838;2022-10-04T00:50:09;15.93;;;8.40;;
21305;SDS011;10812;51.838;5.838;2022-10-04T00:52:44;11.80;;;8.03;;
21305;SDS011;10812;51.838;5.838;2022-10-04T00:55:20;12.00;;;8.30;;
21305;SDS011;10812;51.838;5.838;2022-10-04T00:57:54;13.83;;;8.03;;
21305;SDS011;10812;51.838;5.838;2022-10-04T01:00:26;15.90;;;8.77;;
21305;SDS011;10812;51.838;5.838;2022-10-04T01:02:59;12.23;;;8.33;;
21305;SDS011;10812;51.838;5.838;2022-10-04T01:05:31;13.67;;;8.57;;
21305;SDS011;10812;51.838;5.838;2022-10-04T01:08:03;12.27;;;8.60;;
21305;SDS011;10812;51.838;5.838;2022-10-04T01:10:37;13.73;;;8.73;;
21305;SDS011;10812;51.838;5.838;2022-10-04T01:13:11;16.70;;;8.40;;
21305;SDS011;10812;51.838;5.838;2022-10-04T01:15:44;14.87;;;8.40;;
21305;SDS011;10812;51.838;5.838;2022-10-04T01:18:27;15.70;;;7.97;;
21305;SDS011;10812;51.838;5.838;2022-10-04T01:20:57;13.50;;;8.33;;
21305;SDS011;10812;51.838;5.838;2022-10-04T01:26:36;12.30;;;8.97;;
21305;SDS011;10812;51.838;5.838;2022-10-04T01:29:08;14.50;;;8.77;;
21305;SDS011;10812;51.838;5.838;2022-10-04T01:31:39;15.30;;;8.33;;
21305;SDS011;10812;51.838;5.838;2022-10-04T01:34:10;12.53;;;8.50;;
21305;SDS011;10812;51.838;5.838;2022-10-04T01:36:40;13.83;;;7.80;;
21305;SDS011;10812;51.838;5.838;2022-10-04T01:39:11;16.13;;;8.07;;
21305;SDS011;10812;51.838;5.838;2022-10-04T01:41:44;13.20;;;7.23;;
21305;SDS011;10812;51.838;5.838;2022-10-04T01:44:16;12.97;;;7.40;;
21305;SDS011;10812;51.838;5.838;2022-10-04T01:46:49;12.87;;;7.97;;
21305;SDS011;10812;51.838;5.838;2022-10-04T01:49:22;10.27;;;7.23;;
21305;SDS011;10812;51.838;5.838;2022-10-04T01:51:56;12.43;;;8.30;;
21305;SDS011;10812;51.838;5.838;2022-10-04T01:54:32;11.03;;;7.43;;
21305;SDS011;10812;51.838;5.838;2022-10-04T01:57:06;9.93;;;8.37;;
21305;SDS011;10812;51.838;5.838;2022-10-04T01:59:41;11.20;;;7.13;;
21305;SDS011;10812;51.838;5.838;2022-10-04T02:02:17;8.77;;;7.00;;
21305;SDS011;10812;51.838;5.838;2022-10-04T02:04:51;12.20;;;7.67;;
21305;SDS011;10812;51.838;5.838;2022-10-04T02:07:22;12.47;;;7.37;;
21305;SDS011;10812;51.838;5.838;2022-10-04T02:09:55;10.57;;;7.73;;
21305;SDS011;10812;51.838;5.838;2022-10-04T02:12:25;11.57;;;7.00;;
21305;SDS011;10812;51.838;5.838;2022-10-04T02:14:57;12.83;;;7.43;;
21305;SDS011;10812;51.838;5.838;2022-10-04T02:17:28;13.00;;;7.03;;
21305;SDS011;10812;51.838;5.838;2022-10-04T02:19:58;14.40;;;8.37;;
21305;SDS011;10812;51.838;5.838;2022-10-04T02:22:27;10.93;;;7.47;;
21305;SDS011;10812;51.838;5.838;2022-10-04T02:24:57;14.87;;;7.77;;
21305;SDS011;10812;51.838;5.838;2022-10-04T02:27:26;11.90;;;8.57;;
21305;SDS011;10812;51.838;5.838;2022-10-04T02:29:59;11.77;;;7.87;;
21305;SDS011;10812;51.838;5.838;2022-10-04T02:32:29;10.67;;;8.00;;
21305;SDS011;10812;51.838;5.838;2022-10-04T02:35:16;13.67;;;8.90;;
21305;SDS011;10812;51.838;5.838;2022-10-04T02:37:46;13.07;;;8.53;;
21305;SDS011;10812;51.838;5.838;2022-10-04T02:40:20;11.57;;;8.53;;
21305;SDS011;10812;51.838;5.838;2022-10-04T02:42:56;9.07;;;7.77;;
21305;SDS011;10812;51.838;5.838;2022-10-04T02:45:31;13.23;;;8.47;;
21305;SDS011;10812;51.838;5.838;2022-10-04T02:48:11;16.27;;;8.20;;
21305;SDS011;10812;51.838;5.838;2022-10-04T02:50:52;12.67;;;8.60;;
21305;SDS011;10812;51.838;5.838;2022-10-04T02:53:23;11.87;;;8.43;;
21305;SDS011;10812;51.838;5.838;2022-10-04T02:55:59;13.30;;;8.87;;
21305;SDS011;10812;51.838;5.838;2022-10-04T02:58:29;10.77;;;8.77;;
21305;SDS011;10812;51.838;5.838;2022-10-04T03:06:19;13.17;;;9.20;;
21305;SDS011;10812;51.838;5.838;2022-10-04T03:08:50;14.17;;;8.80;;
21305;SDS011;10812;51.838;5.838;2022-10-04T03:11:23;13.60;;;8.93;;
21305;SDS011;10812;51.838;5.838;2022-10-04T03:13:56;13.80;;;9.37;;
21305;SDS011;10812;51.838;5.838;2022-10-04T03:16:27;13.87;;;10.10;;
21305;SDS011;10812;51.838;5.838;2022-10-04T03:19:02;13.80;;;9.37;;
21305;SDS011;10812;51.838;5.838;2022-10-04T03:21:32;11.17;;;9.73;;
21305;SDS011;10812;51.838;5.838;2022-10-04T03:24:02;16.17;;;10.53;;
21305;SDS011;10812;51.838;5.838;2022-10-04T03:26:34;14.30;;;9.53;;
21305;SDS011;10812;51.838;5.838;2022-10-04T03:29:06;13.97;;;10.53;;
21305;SDS011;10812;51.838;5.838;2022-10-04T03:31:36;13.27;;;10.37;;
21305;SDS011;10812;51.838;5.838;2022-10-04T03:34:12;17.40;;;10.57;;
21305;SDS011;10812;51.838;5.838;2022-10-04T03:36:42;15.00;;;10.77;;
21305;SDS011;10812;51.838;5.838;2022-10-04T03:39:14;15.30;;;10.43;;
21305;SDS011;10812;51.838;5.838;2022-10-04T03:41:48;18.33;;;11.00;;
21305;SDS011;10812;51.838;5.838;2022-10-04T03:44:17;15.53;;;10.60;;
21305;SDS011;10812;51.838;5.838;2022-10-04T03:46:47;16.07;;;10.70;;
21305;SDS011;10812;51.838;5.838;2022-10-04T03:49:16;13.77;;;11.07;;
21305;SDS011;10812;51.838;5.838;2022-10-04T03:51:51;15.07;;;10.60;;
21305;SDS011;10812;51.838;5.838;2022-10-04T03:54:20;17.03;;;10.97;;
21305;SDS011;10812;51.838;5.838;2022-10-04T03:56:54;18.53;;;12.63;;
21305;SDS011;10812;51.838;5.838;2022-10-04T03:59:25;19.87;;;12.27;;
21305;SDS011;10812;51.838;5.838;2022-10-04T04:01:59;17.57;;;11.47;;
21305;SDS011;10812;51.838;5.838;2022-10-04T04:04:35;17.90;;;12.77;;
21305;SDS011;10812;51.838;5.838;2022-10-04T04:07:12;18.50;;;12.33;;
21305;SDS011;10812;51.838;5.838;2022-10-04T04:09:46;13.20;;;11.23;;
21305;SDS011;10812;51.838;5.838;2022-10-04T04:12:21;19.20;;;11.23;;
21305;SDS011;10812;51.838;5.838;2022-10-04T04:14:52;21.00;;;14.43;;
21305;SDS011;10812;51.838;5.838;2022-10-04T04:17:32;19.53;;;12.67;;
21305;SDS011;10812;51.838;5.838;2022-10-04T04:20:05;22.07;;;12.70;;
21305;SDS011;10812;51.838;5.838;2022-10-04T04:22:51;14.77;;;11.50;;
21305;SDS011;10812;51.838;5.838;2022-10-04T04:25:30;18.60;;;12.07;;
21305;SDS011;10812;51.838;5.838;2022-10-04T04:28:04;20.53;;;12.80;;
21305;SDS011;10812;51.838;5.838;2022-10-04T04:30:43;18.70;;;12.37;;
21305;SDS011;10812;51.838;5.838;2022-10-04T04:33:29;15.77;;;11.70;;
21305;SDS011;10812;51.838;5.838;2022-10-04T04:36:04;20.63;;;13.23;;
21305;SDS011;10812;51.838;5.838;2022-10-04T04:38:33;21.00;;;13.60;;
21305;SDS011;10812;51.838;5.838;2022-10-04T04:41:21;22.17;;;12.23;;
21305;SDS011;10812;51.838;5.838;2022-10-04T04:43:52;20.37;;;13.40;;
21305;SDS011;10812;51.838;5.838;2022-10-04T04:46:20;15.60;;;12.07;;
21305;SDS011;10812;51.838;5.838;2022-10-04T04:48:55;19.10;;;12.77;;
21305;SDS011;10812;51.838;5.838;2022-10-04T04:51:27;13.47;;;11.30;;
21305;SDS011;10812;51.838;5.838;2022-10-04T04:53:57;20.03;;;12.43;;
21305;SDS011;10812;51.838;5.838;2022-10-04T04:56:28;18.87;;;12.67;;
21305;SDS011;10812;51.838;5.838;2022-10-04T04:59:00;21.47;;;12.77;;
21305;SDS011;10812;51.838;5.838;2022-10-04T05:01:30;21.30;;;13.53;;
21305;SDS011;10812;51.838;5.838;2022-10-04T05:04:02;16.37;;;12.60;;
21305;SDS011;10812;51.838;5.838;2022-10-04T05:06:32;21.80;;;13.60;;
21305;SDS011;10812;51.838;5.838;2022-10-04T05:09:03;17.23;;;12.40;;
21305;SDS011;10812;51.838;5.838;2022-10-04T05:11:33;22.77;;;15.17;;
21305;SDS011;10812;51.838;5.838;2022-10-04T05:14:05;17.50;;;12.63;;
21305;SDS011;10812;51.838;5.838;2022-10-04T05:16:37;18.83;;;12.63;;
21305;SDS011;10812;51.838;5.838;2022-10-04T05:19:12;18.73;;;13.50;;
21305;SDS011;10812;51.838;5.838;2022-10-04T05:21:43;22.23;;;14.50;;
21305;SDS011;10812;51.838;5.838;2022-10-04T05:24:19;21.07;;;14.47;;
21305;SDS011;10812;51.838;5.838;2022-10-04T05:26:50;19.90;;;13.20;;
21305;SDS011;10812;51.838;5.838;2022-10-04T05:29:23;19.07;;;13.63;;
21305;SDS011;10812;51.838;5.838;2022-10-04T05:31:57;20.10;;;13.30;;
21305;SDS011;10812;51.838;5.838;2022-10-04T05:34:36;22.40;;;13.97;;
21305;SDS011;10812;51.838;5.838;2022-10-04T05:37:13;18.33;;;13.43;;
21305;SDS011;10812;51.838;5.838;2022-10-04T05:39:54;17.60;;;12.57;;
21305;SDS011;10812;51.838;5.838;2022-10-04T05:42:49;20.83;;;13.20;;
21305;SDS011;10812;51.838;5.838;2022-10-04T05:45:22;17.43;;;11.63;;
21305;SDS011;10812;51.838;5.838;2022-10-04T05:47:53;15.23;;;12.33;;
21305;SDS011;10812;51.838;5.838;2022-10-04T05:50:26;20.97;;;12.83;;
21305;SDS011;10812;51.838;5.838;2022-10-04T05:53:07;14.67;;;12.10;;
21305;SDS011;10812;51.838;5.838;2022-10-04T05:55:45;27.17;;;13.03;;
21305;SDS011;10812;51.838;5.838;2022-10-04T05:58:24;21.10;;;12.13;;
21305;SDS011;10812;51.838;5.838;2022-10-04T06:01:12;20.20;;;12.47;;
21305;SDS011;10812;51.838;5.838;2022-10-04T06:06:54;20.63;;;11.73;;
21305;SDS011;10812;51.838;5.838;2022-10-04T06:09:35;15.57;;;11.53;;
21305;SDS011;10812;51.838;5.838;2022-10-04T06:12:16;15.93;;;11.47;;
21305;SDS011;10812;51.838;5.838;2022-10-04T06:15:04;15.20;;;11.80;;
21305;SDS011;10812;51.838;5.838;2022-10-04T06:17:53;16.37;;;11.20;;
21305;SDS011;10812;51.838;5.838;2022-10-04T06:20:38;22.40;;;11.20;;
21305;SDS011;10812;51.838;5.838;2022-10-04T06:23:17;17.20;;;10.50;;
21305;SDS011;10812;51.838;5.838;2022-10-04T06:25:47;13.73;;;10.53;;
21305;SDS011;10812;51.838;5.838;2022-10-04T06:28:18;16.90;;;11.53;;
21305;SDS011;10812;51.838;5.838;2022-10-04T06:33:55;14.07;;;10.30;;
21305;SDS011;10812;51.838;5.838;2022-10-04T06:36:49;12.73;;;10.23;;
21305;SDS011;10812;51.838;5.838;2022-10-04T06:39:37;18.40;;;10.40;;
21305;SDS011;10812;51.838;5.838;2022-10-04T06:42:32;12.37;;;9.33;;
21305;SDS011;10812;51.838;5.838;2022-10-04T06:45:24;15.13;;;10.00;;
21305;SDS011;10812;51.838;5.838;2022-10-04T06:48:07;14.23;;;9.50;;
21305;SDS011;10812;51.838;5.838;2022-10-04T06:50:53;14.53;;;10.53;;
21305;SDS011;10812;51.838;5.838;2022-10-04T06:53:29;13.97;;;9.63;;
21305;SDS011;10812;51.838;5.838;2022-10-04T06:56:14;14.53;;;8.93;;
21305;SDS011;10812;51.838;5.838;2022-10-04T06:59:07;13.07;;;8.60;;
21305;SDS011;10812;51.838;5.838;2022-10-04T07:01:55;12.40;;;8.70;;
21305;SDS011;10812;51.838;5.838;2022-10-04T07:04:30;13.17;;;8.50;;
21305;SDS011;10812;51.838;5.838;2022-10-04T07:11:47;10.97;;;6.63;;
21305;SDS011;10812;51.838;5.838;2022-10-04T07:14:21;14.37;;;6.03;;
21305;SDS011;10812;51.838;5.838;2022-10-04T07:16:56;8.87;;;5.10;;
21305;SDS011;10812;51.838;5.838;2022-10-04T07:19:31;8.37;;;4.80;;
21305;SDS011;10812;51.838;5.838;2022-10-04T07:22:08;6.03;;;4.50;;
21305;SDS011;10812;51.838;5.838;2022-10-04T07:24:43;7.97;;;4.53;;
21305;SDS011;10812;51.838;5.838;2022-10-04T07:27:20;7.20;;;3.80;;
21305;SDS011;10812;51.838;5.838;2022-10-04T07:29:54;6.45;;;3.63;;
21305;SDS011;10812;51.838;5.838;2022-10-04T07:32:25;4.63;;;3.50;;
21305;SDS011;10812;51.838;5.838;2022-10-04T07:34:56;6.88;;;3.40;;
21305;SDS011;10812;51.838;5.838;2022-10-04T07:37:31;5.22;;;3.70;;
21305;SDS011;10812;51.838;5.838;2022-10-04T07:40:03;6.65;;;3.70;;
21305;SDS011;10812;51.838;5.838;2022-10-04T07:42:45;7.43;;;4.68;;
21305;SDS011;10812;51.838;5.838;2022-10-04T07:45:20;7.78;;;4.00;;
21305;SDS011;10812;51.838;5.838;2022-10-04T07:48:00;5.63;;;4.30;;
21305;SDS011;10812;51.838;5.838;2022-10-04T07:50:32;9.48;;;4.05;;
21305;SDS011;10812;51.838;5.838;2022-10-04T07:53:06;4.05;;;3.30;;
21305;SDS011;10812;51.838;5.838;2022-10-04T07:55:40;5.47;;;4.30;;
21305;SDS011;10812;51.838;5.838;2022-10-04T07:58:19;10.50;;;4.47;;
21305;SDS011;10812;51.838;5.838;2022-10-04T08:00:56;6.97;;;4.10;;
21305;SDS011;10812;51.838;5.838;2022-10-04T08:03:35;7.07;;;3.80;;
21305;SDS011;10812;51.838;5.838;2022-10-04T08:06:16;5.57;;;3.58;;
21305;SDS011;10812;51.838;5.838;2022-10-04T08:08:59;4.60;;;3.92;;
21305;SDS011;10812;51.838;5.838;2022-10-04T08:11:47;7.25;;;4.20;;
21305;SDS011;10812;51.838;5.838;2022-10-04T08:14:29;7.57;;;4.07;;
21305;SDS011;10812;51.838;5.838;2022-10-04T08:17:12;6.35;;;4.28;;
21305;SDS011;10812;51.838;5.838;2022-10-04T08:19:49;7.80;;;3.42;;
21305;SDS011;10812;51.838;5.838;2022-10-04T08:22:29;6.57;;;3.90;;
21305;SDS011;10812;51.838;5.838;2022-10-04T08:25:09;6.18;;;3.78;;
21305;SDS011;10812;51.838;5.838;2022-10-04T08:27:46;8.65;;;4.30;;
21305;SDS011;10812;51.838;5.838;2022-10-04T08:30:41;6.93;;;3.50;;
21305;SDS011;10812;51.838;5.838;2022-10-04T08:33:30;6.45;;;3.63;;
21305;SDS011;10812;51.838;5.838;2022-10-04T08:36:18;4.70;;;3.60;;
21305;SDS011;10812;51.838;5.838;2022-10-04T08:38:55;8.10;;;3.92;;
21305;SDS011;10812;51.838;5.838;2022-10-04T08:41:39;8.10;;;4.47;;
21305;SDS011;10812;51.838;5.838;2022-10-04T08:44:46;7.00;;;3.65;;
21305;SDS011;10812;51.838;5.838;2022-10-04T08:50:53;6.68;;;4.03;;
21305;SDS011;10812;51.838;5.838;2022-10-04T08:53:56;6.10;;;4.35;;
21305;SDS011;10812;51.838;5.838;2022-10-04T08:56:51;9.82;;;4.30;;
21305;SDS011;10812;51.838;5.838;2022-10-04T09:05:34;5.63;;;3.88;;
21305;SDS011;10812;51.838;5.838;2022-10-04T09:11:22;6.13;;;3.78;;
21305;SDS011;10812;51.838;5.838;2022-10-04T09:17:34;7.10;;;4.20;;
21305;SDS011;10812;51.838;5.838;2022-10-04T09:20:15;5.15;;;4.25;;
21305;SDS011;10812;51.838;5.838;2022-10-04T09:23:11;4.88;;;4.18;;
21305;SDS011;10812;51.838;5.838;2022-10-04T09:26:03;4.47;;;3.80;;
21305;SDS011;10812;51.838;5.838;2022-10-04T09:29:07;6.43;;;4.10;;
21305;SDS011;10812;51.838;5.838;2022-10-04T09:34:57;8.90;;;4.22;;
21305;SDS011;10812;51.838;5.838;2022-10-04T09:37:42;7.18;;;4.30;;
21305;SDS011;10812;51.838;5.838;2022-10-04T09:49:28;6.18;;;4.10;;
21305;SDS011;10812;51.838;5.838;2022-10-04T09:52:16;8.02;;;4.18;;
21305;SDS011;10812;51.838;5.838;2022-10-04T09:54:59;5.68;;;3.33;;
21305;SDS011;10812;51.838;5.838;2022-10-04T09:57:47;11.77;;;4.38;;
21305;SDS011;10812;51.838;5.838;2022-10-04T10:00:31;6.60;;;4.25;;
21305;SDS011;10812;51.838;5.838;2022-10-04T10:03:28;5.97;;;4.43;;
21305;SDS011;10812;51.838;5.838;2022-10-04T10:09:32;6.35;;;4.45;;
21305;SDS011;10812;51.838;5.838;2022-10-04T10:12:30;7.90;;;4.55;;
21305;SDS011;10812;51.838;5.838;2022-10-04T10:15:31;10.10;;;4.22;;
21305;SDS011;10812;51.838;5.838;2022-10-04T10:18:10;9.27;;;5.20;;
21305;SDS011;10812;51.838;5.838;2022-10-04T10:23:48;8.70;;;4.68;;
21305;SDS011;10812;51.838;5.838;2022-10-04T10:26:30;8.27;;;4.88;;
21305;SDS011;10812;51.838;5.838;2022-10-04T10:32:35;8.65;;;4.18;;
21305;SDS011;10812;51.838;5.838;2022-10-04T10:35:26;7.70;;;4.22;;
21305;SDS011;10812;51.838;5.838;2022-10-04T10:38:26;8.02;;;4.22;;
21305;SDS011;10812;51.838;5.838;2022-10-04T10:41:17;7.45;;;4.68;;
21305;SDS011;10812;51.838;5.838;2022-10-04T10:44:19;6.30;;;3.97;;
21305;SDS011;10812;51.838;5.838;2022-10-04T10:47:02;10.25;;;5.07;;
21305;SDS011;10812;51.838;5.838;2022-10-04T10:49:45;7.82;;;4.35;;
21305;SDS011;10812;51.838;5.838;2022-10-04T10:52:48;7.95;;;4.55;;
21305;SDS011;10812;51.838;5.838;2022-10-04T10:55:44;5.68;;;4.22;;
21305;SDS011;10812;51.838;5.838;2022-10-04T10:58:43;8.63;;;4.20;;
21305;SDS011;10812;51.838;5.838;2022-10-04T11:01:52;7.93;;;4.22;;
21305;SDS011;10812;51.838;5.838;2022-10-04T11:04:50;6.40;;;3.78;;
21305;SDS011;10812;51.838;5.838;2022-10-04T11:07:28;6.30;;;3.95;;
21305;SDS011;10812;51.838;5.838;2022-10-04T11:10:23;5.85;;;3.85;;
21305;SDS011;10812;51.838;5.838;2022-10-04T11:13:26;6.90;;;3.63;;
21305;SDS011;10812;51.838;5.838;2022-10-04T11:23:00;6.97;;;3.80;;
21305;SDS011;10812;51.838;5.838;2022-10-04T11:28:56;9.68;;;4.20;;
21305;SDS011;10812;51.838;5.838;2022-10-04T11:31:49;4.95;;;3.88;;
21305;SDS011;10812;51.838;5.838;2022-10-04T11:38:04;8.18;;;4.03;;
21305;SDS011;10812;51.838;5.838;2022-10-04T11:40:55;8.18;;;3.67;;
21305;SDS011;10812;51.838;5.838;2022-10-04T11:43:46;4.45;;;3.00;;
21305;SDS011;10812;51.838;5.838;2022-10-04T11:46:42;6.75;;;3.33;;
21305;SDS011;10812;51.838;5.838;2022-10-04T11:49:28;5.55;;;3.50;;
21305;SDS011;10812;51.838;5.838;2022-10-04T12:09:57;5.22;;;2.85;;
21305;SDS011;10812;51.838;5.838;2022-10-04T12:12:49;5.75;;;3.55;;
21305;SDS011;10812;51.838;5.838;2022-10-04T12:15:45;5.97;;;3.22;;
21305;SDS011;10812;51.838;5.838;2022-10-04T12:24:22;5.78;;;2.72;;
21305;SDS011;10812;51.838;5.838;2022-10-04T12:27:24;8.05;;;2.90;;
21305;SDS011;10812;51.838;5.838;2022-10-04T12:30:13;7.25;;;3.10;;
21305;SDS011;10812;51.838;5.838;2022-10-04T12:32:53;5.63;;;2.65;;
21305;SDS011;10812;51.838;5.838;2022-10-04T12:35:30;5.72;;;2.55;;
21305;SDS011;10812;51.838;5.838;2022-10-04T12:38:13;4.10;;;2.30;;
21305;SDS011;10812;51.838;5.838;2022-10-04T12:40:49;5.03;;;2.70;;
21305;SDS011;10812;51.838;5.838;2022-10-04T12:43:25;4.93;;;2.50;;
21305;SDS011;10812;51.838;5.838;2022-10-04T12:46:05;4.97;;;2.85;;
21305;SDS011;10812;51.838;5.838;2022-10-04T12:48:46;8.82;;;3.50;;
21305;SDS011;10812;51.838;5.838;2022-10-04T12:51:41;3.95;;;2.45;;
21305;SDS011;10812;51.838;5.838;2022-10-04T12:54:25;4.25;;;2.97;;
21305;SDS011;10812;51.838;5.838;2022-10-04T12:57:06;5.40;;;2.50;;
21305;SDS011;10812;51.838;5.838;2022-10-04T12:59:52;7.05;;;2.95;;
21305;SDS011;10812;51.838;5.838;2022-10-04T13:02:30;4.03;;;2.80;;
21305;SDS011;10812;51.838;5.838;2022-10-04T13:05:14;5.18;;;2.08;;
21305;SDS011;10812;51.838;5.838;2022-10-04T13:07:52;5.38;;;2.08;;
21305;SDS011;10812;51.838;5.838;2022-10-04T13:10:40;3.05;;;1.90;;
21305;SDS011;10812;51.838;5.838;2022-10-04T13:16:22;4.90;;;2.17;;
21305;SDS011;10812;51.838;5.838;2022-10-04T13:19:23;5.55;;;2.25;;
21305;SDS011;10812;51.838;5.838;2022-10-04T13:22:09;3.83;;;2.40;;
21305;SDS011;10812;51.838;5.838;2022-10-04T13:25:13;4.43;;;2.50;;
21305;SDS011;10812;51.838;5.838;2022-10-04T13:27:56;6.45;;;2.70;;
21305;SDS011;10812;51.838;5.838;2022-10-04T13:30:28;3.38;;;2.08;;
21305;SDS011;10812;51.838;5.838;2022-10-04T13:33:12;3.05;;;2.05;;
21305;SDS011;10812;51.838;5.838;2022-10-04T13:35:52;4.05;;;2.78;;
21305;SDS011;10812;51.838;5.838;2022-10-04T13:38:37;5.05;;;2.42;;
21305;SDS011;10812;51.838;5.838;2022-10-04T13:41:19;2.72;;;2.03;;
21305;SDS011;10812;51.838;5.838;2022-10-04T13:44:15;2.85;;;2.05;;
21305;SDS011;10812;51.838;5.838;2022-10-04T13:47:06;4.53;;;2.72;;
21305;SDS011;10812;51.838;5.838;2022-10-04T13:49:58;4.82;;;2.60;;
21305;SDS011;10812;51.838;5.838;2022-10-04T13:52:40;3.83;;;2.70;;
21305;SDS011;10812;51.838;5.838;2022-10-04T13:55:34;6.50;;;2.70;;
21305;SDS011;10812;51.838;5.838;2022-10-04T13:58:27;3.40;;;2.40;;
21305;SDS011;10812;51.838;5.838;2022-10-04T14:01:05;4.28;;;2.53;;
21305;SDS011;10812;51.838;5.838;2022-10-04T14:03:59;4.68;;;2.22;;
21305;SDS011;10812;51.838;5.838;2022-10-04T14:10:00;4.85;;;2.53;;
21305;SDS011;10812;51.838;5.838;2022-10-04T14:15:59;3.95;;;2.50;;
21305;SDS011;10812;51.838;5.838;2022-10-04T14:28:27;5.00;;;2.17;;
21305;SDS011;10812;51.838;5.838;2022-10-04T14:31:34;9.88;;;2.90;;
21305;SDS011;10812;51.838;5.838;2022-10-04T14:37:39;5.05;;;2.50;;
21305;SDS011;10812;51.838;5.838;2022-10-04T14:40:44;3.45;;;2.33;;
21305;SDS011;10812;51.838;5.838;2022-10-04T14:43:34;6.25;;;3.13;;
21305;SDS011;10812;51.838;5.838;2022-10-04T14:46:30;6.63;;;3.28;;
21305;SDS011;10812;51.838;5.838;2022-10-04T14:49:09;6.15;;;3.08;;
21305;SDS011;10812;51.838;5.838;2022-10-04T14:51:55;5.97;;;3.17;;
21305;SDS011;10812;51.838;5.838;2022-10-04T14:54:36;4.75;;;2.67;;
21305;SDS011;10812;51.838;5.838;2022-10-04T14:57:11;3.58;;;2.70;;
21305;SDS011;10812;51.838;5.838;2022-10-04T14:59:52;4.63;;;2.33;;
21305;SDS011;10812;51.838;5.838;2022-10-04T15:02:47;4.65;;;2.60;;
21305;SDS011;10812;51.838;5.838;2022-10-04T15:05:33;3.80;;;2.60;;
21305;SDS011;10812;51.838;5.838;2022-10-04T15:08:27;4.93;;;2.85;;
21305;SDS011;10812;51.838;5.838;2022-10-04T15:11:15;4.93;;;2.75;;
21305;SDS011;10812;51.838;5.838;2022-10-04T15:13:49;6.15;;;3.33;;
21305;SDS011;10812;51.838;5.838;2022-10-04T15:16:27;5.03;;;2.80;;
21305;SDS011;10812;51.838;5.838;2022-10-04T15:19:03;5.72;;;2.85;;
21305;SDS011;10812;51.838;5.838;2022-10-04T15:21:40;3.95;;;2.92;;
21305;SDS011;10812;51.838;5.838;2022-10-04T15:24:22;5.50;;;3.00;;
21305;SDS011;10812;51.838;5.838;2022-10-04T15:27:10;3.42;;;3.10;;
21305;SDS011;10812;51.838;5.838;2022-10-04T15:29:50;7.05;;;3.95;;
21305;SDS011;10812;51.838;5.838;2022-10-04T15:32:31;5.75;;;2.90;;
21305;SDS011;10812;51.838;5.838;2022-10-04T15:35:06;5.30;;;2.90;;
21305;SDS011;10812;51.838;5.838;2022-10-04T15:37:48;5.32;;;2.65;;
21305;SDS011;10812;51.838;5.838;2022-10-04T15:40:32;2.58;;;2.38;;
21305;SDS011;10812;51.838;5.838;2022-10-04T15:43:14;3.88;;;2.50;;
21305;SDS011;10812;51.838;5.838;2022-10-04T15:46:01;5.03;;;2.88;;
21305;SDS011;10812;51.838;5.838;2022-10-04T15:48:53;4.13;;;2.72;;
21305;SDS011;10812;51.838;5.838;2022-10-04T15:51:38;5.53;;;2.60;;
21305;SDS011;10812;51.838;5.838;2022-10-04T15:54:38;4.50;;;2.53;;
21305;SDS011;10812;51.838;5.838;2022-10-04T15:57:22;4.20;;;2.85;;
21305;SDS011;10812;51.838;5.838;2022-10-04T16:00:02;3.47;;;2.20;;
21305;SDS011;10812;51.838;5.838;2022-10-04T16:02:41;6.10;;;2.92;;
21305;SDS011;10812;51.838;5.838;2022-10-04T16:05:24;4.93;;;2.38;;
21305;SDS011;10812;51.838;5.838;2022-10-04T16:08:03;4.70;;;3.40;;
21305;SDS011;10812;51.838;5.838;2022-10-04T16:11:07;6.88;;;3.28;;
21305;SDS011;10812;51.838;5.838;2022-10-04T16:16:59;7.25;;;3.42;;
21305;SDS011;10812;51.838;5.838;2022-10-04T16:19:57;5.80;;;3.38;;
21305;SDS011;10812;51.838;5.838;2022-10-04T16:22:33;4.53;;;2.80;;
21305;SDS011;10812;51.838;5.838;2022-10-04T16:28:02;6.32;;;3.92;;
21305;SDS011;10812;51.838;5.838;2022-10-04T16:30:39;5.18;;;2.85;;
21305;SDS011;10812;51.838;5.838;2022-10-04T16:33:25;4.22;;;3.15;;
21305;SDS011;10812;51.838;5.838;2022-10-04T16:36:03;5.85;;;3.50;;
21305;SDS011;10812;51.838;5.838;2022-10-04T16:38:35;7.32;;;3.72;;
21305;SDS011;10812;51.838;5.838;2022-10-04T16:41:34;4.87;;;3.23;;
21305;SDS011;10812;51.838;5.838;2022-10-04T16:44:11;5.23;;;3.63;;
21305;SDS011;10812;51.838;5.838;2022-10-04T17:02:18;5.73;;;3.63;;
21305;SDS011;10812;51.838;5.838;2022-10-04T17:08:02;7.37;;;4.30;;
21305;SDS011;10812;51.838;5.838;2022-10-04T17:10:59;9.13;;;4.07;;
21305;SDS011;10812;51.838;5.838;2022-10-04T17:13:42;7.33;;;4.23;;
21305;SDS011;10812;51.838;5.838;2022-10-04T17:16:23;7.27;;;4.37;;
21305;SDS011;10812;51.838;5.838;2022-10-04T17:19:16;6.60;;;4.13;;
21305;SDS011;10812;51.838;5.838;2022-10-04T17:21:57;8.47;;;4.30;;
21305;SDS011;10812;51.838;5.838;2022-10-04T17:24:40;6.57;;;4.63;;
21305;SDS011;10812;51.838;5.838;2022-10-04T17:27:40;6.00;;;4.10;;
21305;SDS011;10812;51.838;5.838;2022-10-04T17:30:13;5.20;;;3.87;;
21305;SDS011;10812;51.838;5.838;2022-10-04T17:35:54;5.93;;;4.17;;
21305;SDS011;10812;51.838;5.838;2022-10-04T17:38:41;8.17;;;4.70;;
21305;SDS011;10812;51.838;5.838;2022-10-04T17:41:19;6.53;;;4.33;;
21305;SDS011;10812;51.838;5.838;2022-10-04T17:44:03;7.00;;;4.50;;
21305;SDS011;10812;51.838;5.838;2022-10-04T17:46:55;6.90;;;4.63;;
21305;SDS011;10812;51.838;5.838;2022-10-04T18:00:56;7.33;;;4.80;;
21305;SDS011;10812;51.838;5.838;2022-10-04T18:03:34;11.53;;;4.83;;
21305;SDS011;10812;51.838;5.838;2022-10-04T18:06:10;8.73;;;4.57;;
21305;SDS011;10812;51.838;5.838;2022-10-04T18:08:49;8.30;;;5.27;;
21305;SDS011;10812;51.838;5.838;2022-10-04T18:11:26;6.33;;;5.17;;
21305;SDS011;10812;51.838;5.838;2022-10-04T18:14:00;6.10;;;5.07;;
21305;SDS011;10812;51.838;5.838;2022-10-04T18:16:40;9.00;;;6.03;;
21305;SDS011;10812;51.838;5.838;2022-10-04T18:19:32;7.30;;;6.00;;
21305;SDS011;10812;51.838;5.838;2022-10-04T18:22:11;8.27;;;5.00;;
21305;SDS011;10812;51.838;5.838;2022-10-04T18:24:41;21.60;;;12.67;;
21305;SDS011;10812;51.838;5.838;2022-10-04T18:27:15;10.17;;;7.23;;
21305;SDS011;10812;51.838;5.838;2022-10-04T18:29:56;9.27;;;5.67;;
21305;SDS011;10812;51.838;5.838;2022-10-04T18:32:38;8.20;;;5.07;;
21305;SDS011;10812;51.838;5.838;2022-10-04T18:35:19;7.73;;;5.37;;
21305;SDS011;10812;51.838;5.838;2022-10-04T18:37:52;7.60;;;5.00;;
21305;SDS011;10812;51.838;5.838;2022-10-04T18:40:23;9.00;;;5.83;;
21305;SDS011;10812;51.838;5.838;2022-10-04T18:42:54;9.33;;;5.20;;
21305;SDS011;10812;51.838;5.838;2022-10-04T18:45:24;6.23;;;5.13;;
21305;SDS011;10812;51.838;5.838;2022-10-04T18:47:55;9.30;;;5.57;;